sensor_id;sensor_type;location;lat;lon;timestamp;temperature;humidity
37222;DHT22;23119;51.842;-2.230;2022-12-26T00:00:59;10.20;99.90
37222;DHT22;23119;51.842;-2.230;2022-12-26T00:03:25;10.30;99.90
37222;DHT22;23119;51.842;-2.230;2022-12-26T00:05:50;10.20;99.90
37222;DHT22;23119;51.842;-2.230;2022-12-26T00:08:16;10.20;99.90
37222;DHT22;23119;51.842;-2.230;2022-12-26T00:10:44;10.20;99.90
37222;DHT22;23119;51.842;-2.230;2022-12-26T00:13:13;10.20;99.90
37222;DHT22;23119;51.842;-2.230;2022-12-26T00:15:41;10.20;99.90
37222;DHT22;23119;51.842;-2.230;2022-12-26T00:18:10;10.10;99.90
37222;DHT22;23119;51.842;-2.230;2022-12-26T00:20:39;10.10;99.90
37222;DHT22;23119;51.842;-2.230;2022-12-26T00:23:10;10.10;99.90
37222;DHT22;23119;51.842;-2.230;2022-12-26T00:25:39;10.00;99.90
37222;DHT22;23119;51.842;-2.230;2022-12-26T00:28:10;10.00;99.90
37222;DHT22;23119;51.842;-2.230;2022-12-26T00:30:41;10.00;99.90
37222;DHT22;23119;51.842;-2.230;2022-12-26T00:33:07;10.00;99.90
37222;DHT22;23119;51.842;-2.230;2022-12-26T00:35:36;9.90;99.90
37222;DHT22;23119;51.842;-2.230;2022-12-26T00:38:04;9.90;99.90
37222;DHT22;23119;51.842;-2.230;2022-12-26T00:40:30;9.90;99.90
37222;DHT22;23119;51.842;-2.230;2022-12-26T00:42:56;9.90;99.90
37222;DHT22;23119;51.842;-2.230;2022-12-26T00:45:24;9.90;99.90
37222;DHT22;23119;51.842;-2.230;2022-12-26T00:47:49;9.90;99.90
37222;DHT22;23119;51.842;-2.230;2022-12-26T00:50:17;9.90;99.90
37222;DHT22;23119;51.842;-2.230;2022-12-26T00:52:43;9.80;99.90
37222;DHT22;23119;51.842;-2.230;2022-12-26T00:55:09;9.80;99.90
37222;DHT22;23119;51.842;-2.230;2022-12-26T00:57:38;9.80;99.90
37222;DHT22;23119;51.842;-2.230;2022-12-26T01:00:07;9.70;99.90
37222;DHT22;23119;51.842;-2.230;2022-12-26T01:02:35;9.70;99.90
37222;DHT22;23119;51.842;-2.230;2022-12-26T01:05:08;9.70;99.90
37222;DHT22;23119;51.842;-2.230;2022-12-26T01:07:38;9.70;99.90
37222;DHT22;23119;51.842;-2.230;2022-12-26T01:10:05;9.70;99.90
37222;DHT22;23119;51.842;-2.230;2022-12-26T01:12:34;9.70;99.90
37222;DHT22;23119;51.842;-2.230;2022-12-26T01:15:00;8.80;99.90
37222;DHT22;23119;51.842;-2.230;2022-12-26T01:17:31;9.60;99.90
37222;DHT22;23119;51.842;-2.230;2022-12-26T01:20:00;9.60;99.90
37222;DHT22;23119;51.842;-2.230;2022-12-26T01:22:26;9.50;99.90
37222;DHT22;23119;51.842;-2.230;2022-12-26T01:24:53;9.50;99.90
37222;DHT22;23119;51.842;-2.230;2022-12-26T01:27:24;9.50;99.90
37222;DHT22;23119;51.842;-2.230;2022-12-26T01:29:51;9.40;99.90
37222;DHT22;23119;51.842;-2.230;2022-12-26T01:32:17;9.40;99.90
37222;DHT22;23119;51.842;-2.230;2022-12-26T01:34:46;9.30;99.90
37222;DHT22;23119;51.842;-2.230;2022-12-26T01:37:12;9.30;99.90
37222;DHT22;23119;51.842;-2.230;2022-12-26T01:39:41;9.30;99.90
37222;DHT22;23119;51.842;-2.230;2022-12-26T01:42:14;9.30;99.90
37222;DHT22;23119;51.842;-2.230;2022-12-26T01:47:36;9.30;99.90
37222;DHT22;23119;51.842;-2.230;2022-12-26T01:50:08;9.30;99.90
37222;DHT22;23119;51.842;-2.230;2022-12-26T01:52:45;9.30;99.90
37222;DHT22;23119;51.842;-2.230;2022-12-26T01:55:14;9.30;99.90
37222;DHT22;23119;51.842;-2.230;2022-12-26T01:57:44;9.40;99.90
37222;DHT22;23119;51.842;-2.230;2022-12-26T02:00:12;9.30;99.90
37222;DHT22;23119;51.842;-2.230;2022-12-26T02:02:38;9.30;99.90
37222;DHT22;23119;51.842;-2.230;2022-12-26T02:05:28;9.30;99.90
37222;DHT22;23119;51.842;-2.230;2022-12-26T02:08:15;9.30;99.90
37222;DHT22;23119;51.842;-2.230;2022-12-26T02:13:39;9.30;99.90
37222;DHT22;23119;51.842;-2.230;2022-12-26T02:16:09;9.30;99.90
37222;DHT22;23119;51.842;-2.230;2022-12-26T02:18:42;9.30;99.90
37222;DHT22;23119;51.842;-2.230;2022-12-26T02:29:15;9.00;99.90
37222;DHT22;23119;51.842;-2.230;2022-12-26T02:32:02;8.90;99.90
37222;DHT22;23119;51.842;-2.230;2022-12-26T02:37:51;8.70;99.90
37222;DHT22;23119;51.842;-2.230;2022-12-26T02:46:05;8.60;99.90
37222;DHT22;23119;51.842;-2.230;2022-12-26T02:51:51;8.50;99.90
37222;DHT22;23119;51.842;-2.230;2022-12-26T02:54:47;8.40;99.90
37222;DHT22;23119;51.842;-2.230;2022-12-26T02:57:45;8.50;99.90
37222;DHT22;23119;51.842;-2.230;2022-12-26T03:00:38;8.40;99.90
37222;DHT22;23119;51.842;-2.230;2022-12-26T03:03:28;8.40;99.90
37222;DHT22;23119;51.842;-2.230;2022-12-26T03:06:26;8.40;99.90
37222;DHT22;23119;51.842;-2.230;2022-12-26T03:09:16;8.40;99.90
37222;DHT22;23119;51.842;-2.230;2022-12-26T03:12:55;8.40;99.90
37222;DHT22;23119;51.842;-2.230;2022-12-26T03:15:42;8.40;99.90
37222;DHT22;23119;51.842;-2.230;2022-12-26T03:18:28;8.30;99.90
37222;DHT22;23119;51.842;-2.230;2022-12-26T03:21:02;8.20;99.90
37222;DHT22;23119;51.842;-2.230;2022-12-26T03:23:35;8.10;99.90
37222;DHT22;23119;51.842;-2.230;2022-12-26T03:26:15;8.20;99.90
37222;DHT22;23119;51.842;-2.230;2022-12-26T03:29:02;8.20;99.90
37222;DHT22;23119;51.842;-2.230;2022-12-26T03:31:48;8.10;99.90
37222;DHT22;23119;51.842;-2.230;2022-12-26T03:34:14;8.10;99.90
37222;DHT22;23119;51.842;-2.230;2022-12-26T03:48:40;8.10;99.90
37222;DHT22;23119;51.842;-2.230;2022-12-26T03:52:25;8.00;99.90
37222;DHT22;23119;51.842;-2.230;2022-12-26T03:58:25;8.00;99.90
37222;DHT22;23119;51.842;-2.230;2022-12-26T04:01:19;8.00;99.90
37222;DHT22;23119;51.842;-2.230;2022-12-26T04:04:07;7.90;99.90
37222;DHT22;23119;51.842;-2.230;2022-12-26T04:06:59;7.90;99.90
37222;DHT22;23119;51.842;-2.230;2022-12-26T04:10:02;7.80;99.90
37222;DHT22;23119;51.842;-2.230;2022-12-26T04:12:49;7.70;99.90
37222;DHT22;23119;51.842;-2.230;2022-12-26T04:15:45;7.70;99.90
37222;DHT22;23119;51.842;-2.230;2022-12-26T04:18:47;7.60;99.90
37222;DHT22;23119;51.842;-2.230;2022-12-26T04:21:45;7.60;99.90
37222;DHT22;23119;51.842;-2.230;2022-12-26T04:24:40;7.60;99.90
37222;DHT22;23119;51.842;-2.230;2022-12-26T04:27:27;7.50;99.90
37222;DHT22;23119;51.842;-2.230;2022-12-26T04:30:12;7.40;99.90
37222;DHT22;23119;51.842;-2.230;2022-12-26T04:33:08;7.30;99.90
37222;DHT22;23119;51.842;-2.230;2022-12-26T04:36:09;7.20;99.90
37222;DHT22;23119;51.842;-2.230;2022-12-26T04:39:00;7.10;99.90
37222;DHT22;23119;51.842;-2.230;2022-12-26T04:41:47;7.10;99.90
37222;DHT22;23119;51.842;-2.230;2022-12-26T04:44:36;7.00;99.90
37222;DHT22;23119;51.842;-2.230;2022-12-26T04:47:08;7.00;99.90
37222;DHT22;23119;51.842;-2.230;2022-12-26T04:49:41;7.00;99.90
37222;DHT22;23119;51.842;-2.230;2022-12-26T04:52:26;7.00;99.90
37222;DHT22;23119;51.842;-2.230;2022-12-26T04:55:15;6.80;99.90
37222;DHT22;23119;51.842;-2.230;2022-12-26T04:57:51;6.80;99.90
37222;DHT22;23119;51.842;-2.230;2022-12-26T05:00:20;6.70;99.90
37222;DHT22;23119;51.842;-2.230;2022-12-26T05:02:53;6.60;99.90
37222;DHT22;23119;51.842;-2.230;2022-12-26T05:05:56;6.60;99.90
37222;DHT22;23119;51.842;-2.230;2022-12-26T05:08:45;6.50;99.90
37222;DHT22;23119;51.842;-2.230;2022-12-26T05:11:32;6.40;99.90
37222;DHT22;23119;51.842;-2.230;2022-12-26T05:13:58;6.40;99.90
37222;DHT22;23119;51.842;-2.230;2022-12-26T05:16:29;6.30;99.90
37222;DHT22;23119;51.842;-2.230;2022-12-26T05:19:15;6.00;99.90
37222;DHT22;23119;51.842;-2.230;2022-12-26T05:22:01;6.10;99.90
37222;DHT22;23119;51.842;-2.230;2022-12-26T05:24:52;5.80;99.90
37222;DHT22;23119;51.842;-2.230;2022-12-26T05:27:39;5.90;99.90
37222;DHT22;23119;51.842;-2.230;2022-12-26T05:30:26;5.90;99.90
37222;DHT22;23119;51.842;-2.230;2022-12-26T05:32:54;5.90;99.90
37222;DHT22;23119;51.842;-2.230;2022-12-26T05:35:39;5.90;99.90
37222;DHT22;23119;51.842;-2.230;2022-12-26T05:38:05;5.90;99.90
37222;DHT22;23119;51.842;-2.230;2022-12-26T05:40:38;5.90;99.90
37222;DHT22;23119;51.842;-2.230;2022-12-26T05:43:04;5.90;99.90
37222;DHT22;23119;51.842;-2.230;2022-12-26T05:45:32;5.90;99.90
37222;DHT22;23119;51.842;-2.230;2022-12-26T05:48:01;5.80;99.90
37222;DHT22;23119;51.842;-2.230;2022-12-26T05:50:30;5.80;99.90
37222;DHT22;23119;51.842;-2.230;2022-12-26T05:53:01;5.80;99.90
37222;DHT22;23119;51.842;-2.230;2022-12-26T05:55:30;5.80;99.90
37222;DHT22;23119;51.842;-2.230;2022-12-26T05:57:59;5.90;99.90
37222;DHT22;23119;51.842;-2.230;2022-12-26T06:00:28;5.90;99.90
37222;DHT22;23119;51.842;-2.230;2022-12-26T06:03:00;5.80;99.90
37222;DHT22;23119;51.842;-2.230;2022-12-26T06:05:29;5.80;99.90
37222;DHT22;23119;51.842;-2.230;2022-12-26T06:07:57;5.80;99.90
37222;DHT22;23119;51.842;-2.230;2022-12-26T06:10:23;5.80;99.90
37222;DHT22;23119;51.842;-2.230;2022-12-26T06:12:51;5.80;99.90
37222;DHT22;23119;51.842;-2.230;2022-12-26T06:15:17;5.80;99.90
37222;DHT22;23119;51.842;-2.230;2022-12-26T06:17:43;5.80;99.90
37222;DHT22;23119;51.842;-2.230;2022-12-26T06:20:09;5.70;99.90
37222;DHT22;23119;51.842;-2.230;2022-12-26T06:22:37;5.70;99.90
37222;DHT22;23119;51.842;-2.230;2022-12-26T06:25:09;5.70;99.90
37222;DHT22;23119;51.842;-2.230;2022-12-26T06:27:40;5.60;99.90
37222;DHT22;23119;51.842;-2.230;2022-12-26T06:30:09;5.60;99.90
37222;DHT22;23119;51.842;-2.230;2022-12-26T06:32:35;5.60;99.90
37222;DHT22;23119;51.842;-2.230;2022-12-26T06:35:06;5.60;99.90
37222;DHT22;23119;51.842;-2.230;2022-12-26T06:37:32;5.60;99.90
37222;DHT22;23119;51.842;-2.230;2022-12-26T06:39:58;5.60;99.90
37222;DHT22;23119;51.842;-2.230;2022-12-26T06:42:27;5.60;99.90
37222;DHT22;23119;51.842;-2.230;2022-12-26T06:45:00;5.50;99.90
37222;DHT22;23119;51.842;-2.230;2022-12-26T06:47:28;5.60;99.90
37222;DHT22;23119;51.842;-2.230;2022-12-26T06:49:54;5.50;99.90
37222;DHT22;23119;51.842;-2.230;2022-12-26T06:52:23;5.50;99.90
37222;DHT22;23119;51.842;-2.230;2022-12-26T06:54:51;5.50;99.90
37222;DHT22;23119;51.842;-2.230;2022-12-26T06:57:17;5.50;99.90
37222;DHT22;23119;51.842;-2.230;2022-12-26T06:59:45;5.50;99.90
37222;DHT22;23119;51.842;-2.230;2022-12-26T07:02:11;5.50;99.90
37222;DHT22;23119;51.842;-2.230;2022-12-26T07:04:37;5.40;99.90
37222;DHT22;23119;51.842;-2.230;2022-12-26T07:07:13;5.40;99.90
37222;DHT22;23119;51.842;-2.230;2022-12-26T07:09:49;5.40;99.90
37222;DHT22;23119;51.842;-2.230;2022-12-26T07:12:15;5.40;99.90
37222;DHT22;23119;51.842;-2.230;2022-12-26T07:14:48;5.40;99.90
37222;DHT22;23119;51.842;-2.230;2022-12-26T07:17:35;5.30;99.90
37222;DHT22;23119;51.842;-2.230;2022-12-26T07:20:06;5.30;99.90
37222;DHT22;23119;51.842;-2.230;2022-12-26T07:22:37;5.20;99.90
37222;DHT22;23119;51.842;-2.230;2022-12-26T07:25:06;5.20;99.90
37222;DHT22;23119;51.842;-2.230;2022-12-26T07:27:37;5.20;99.90
37222;DHT22;23119;51.842;-2.230;2022-12-26T07:30:06;5.20;99.90
37222;DHT22;23119;51.842;-2.230;2022-12-26T07:32:32;5.20;99.90
37222;DHT22;23119;51.842;-2.230;2022-12-26T07:35:03;5.20;99.90
37222;DHT22;23119;51.842;-2.230;2022-12-26T07:37:36;5.10;99.90
37222;DHT22;23119;51.842;-2.230;2022-12-26T07:40:04;5.10;99.90
37222;DHT22;23119;51.842;-2.230;2022-12-26T07:42:33;5.10;99.90
37222;DHT22;23119;51.842;-2.230;2022-12-26T07:45:02;5.10;99.90
37222;DHT22;23119;51.842;-2.230;2022-12-26T07:47:30;5.00;99.90
37222;DHT22;23119;51.842;-2.230;2022-12-26T07:49:58;5.00;99.90
37222;DHT22;23119;51.842;-2.230;2022-12-26T07:52:29;5.10;99.90
37222;DHT22;23119;51.842;-2.230;2022-12-26T07:54:55;5.00;99.90
37222;DHT22;23119;51.842;-2.230;2022-12-26T07:57:26;5.10;99.90
37222;DHT22;23119;51.842;-2.230;2022-12-26T07:59:51;5.10;99.90
37222;DHT22;23119;51.842;-2.230;2022-12-26T08:02:22;5.10;99.90
37222;DHT22;23119;51.842;-2.230;2022-12-26T08:04:51;5.10;99.90
37222;DHT22;23119;51.842;-2.230;2022-12-26T08:07:22;5.10;99.90
37222;DHT22;23119;51.842;-2.230;2022-12-26T08:09:47;5.10;99.90
37222;DHT22;23119;51.842;-2.230;2022-12-26T08:12:16;5.10;99.90
37222;DHT22;23119;51.842;-2.230;2022-12-26T08:14:46;5.10;99.90
37222;DHT22;23119;51.842;-2.230;2022-12-26T08:17:12;5.10;99.90
37222;DHT22;23119;51.842;-2.230;2022-12-26T08:19:40;5.10;99.90
37222;DHT22;23119;51.842;-2.230;2022-12-26T08:22:08;5.10;99.90
37222;DHT22;23119;51.842;-2.230;2022-12-26T08:24:37;5.20;99.90
37222;DHT22;23119;51.842;-2.230;2022-12-26T08:27:03;5.20;99.90
37222;DHT22;23119;51.842;-2.230;2022-12-26T08:29:38;5.20;99.90
37222;DHT22;23119;51.842;-2.230;2022-12-26T08:32:04;5.20;99.90
37222;DHT22;23119;51.842;-2.230;2022-12-26T08:34:33;5.30;99.90
37222;DHT22;23119;51.842;-2.230;2022-12-26T08:37:02;5.30;99.90
37222;DHT22;23119;51.842;-2.230;2022-12-26T08:39:28;5.30;99.90
37222;DHT22;23119;51.842;-2.230;2022-12-26T08:41:54;5.30;99.90
37222;DHT22;23119;51.842;-2.230;2022-12-26T08:44:21;5.20;99.90
37222;DHT22;23119;51.842;-2.230;2022-12-26T08:46:47;5.30;99.90
37222;DHT22;23119;51.842;-2.230;2022-12-26T08:49:13;5.30;99.90
37222;DHT22;23119;51.842;-2.230;2022-12-26T08:51:39;5.30;99.90
37222;DHT22;23119;51.842;-2.230;2022-12-26T08:54:07;5.30;99.90
37222;DHT22;23119;51.842;-2.230;2022-12-26T08:56:36;5.30;99.90
37222;DHT22;23119;51.842;-2.230;2022-12-26T08:59:04;5.40;99.90
37222;DHT22;23119;51.842;-2.230;2022-12-26T09:01:30;5.40;99.90
37222;DHT22;23119;51.842;-2.230;2022-12-26T09:04:02;5.40;99.90
37222;DHT22;23119;51.842;-2.230;2022-12-26T09:06:38;5.40;99.90
37222;DHT22;23119;51.842;-2.230;2022-12-26T09:09:04;5.50;99.90
37222;DHT22;23119;51.842;-2.230;2022-12-26T09:11:33;5.50;99.90
37222;DHT22;23119;51.842;-2.230;2022-12-26T09:14:02;5.50;99.90
37222;DHT22;23119;51.842;-2.230;2022-12-26T09:16:33;5.60;99.90
37222;DHT22;23119;51.842;-2.230;2022-12-26T09:19:13;5.60;99.90
37222;DHT22;23119;51.842;-2.230;2022-12-26T09:21:44;5.70;99.90
37222;DHT22;23119;51.842;-2.230;2022-12-26T09:24:16;5.80;99.90
37222;DHT22;23119;51.842;-2.230;2022-12-26T09:26:42;5.90;99.90
37222;DHT22;23119;51.842;-2.230;2022-12-26T09:29:10;6.10;99.90
37222;DHT22;23119;51.842;-2.230;2022-12-26T09:31:41;6.30;99.90
37222;DHT22;23119;51.842;-2.230;2022-12-26T09:34:09;6.40;99.90
37222;DHT22;23119;51.842;-2.230;2022-12-26T09:36:36;6.60;99.90
37222;DHT22;23119;51.842;-2.230;2022-12-26T09:39:03;6.60;99.90
37222;DHT22;23119;51.842;-2.230;2022-12-26T09:50:21;6.60;99.90
37222;DHT22;23119;51.842;-2.230;2022-12-26T09:52:59;6.80;99.90
37222;DHT22;23119;51.842;-2.230;2022-12-26T09:55:36;5.60;99.90
37222;DHT22;23119;51.842;-2.230;2022-12-26T10:00:52;8.10;99.90
37222;DHT22;23119;51.842;-2.230;2022-12-26T10:03:21;8.60;99.90
37222;DHT22;23119;51.842;-2.230;2022-12-26T10:06:20;8.80;99.90
37222;DHT22;23119;51.842;-2.230;2022-12-26T10:20:21;12.80;99.90
37222;DHT22;23119;51.842;-2.230;2022-12-26T10:23:09;13.80;99.90
37222;DHT22;23119;51.842;-2.230;2022-12-26T10:25:46;14.70;99.90
37222;DHT22;23119;51.842;-2.230;2022-12-26T10:30:54;15.80;99.90
37222;DHT22;23119;51.842;-2.230;2022-12-26T10:33:34;16.10;99.90
37222;DHT22;23119;51.842;-2.230;2022-12-26T10:36:04;16.10;99.30
37222;DHT22;23119;51.842;-2.230;2022-12-26T10:41:04;15.60;99.60
37222;DHT22;23119;51.842;-2.230;2022-12-26T10:43:37;15.00;99.60
37222;DHT22;23119;51.842;-2.230;2022-12-26T10:46:26;14.60;99.90
37222;DHT22;23119;51.842;-2.230;2022-12-26T10:48:54;14.60;99.90
37222;DHT22;23119;51.842;-2.230;2022-12-26T10:51:20;14.50;99.90
37222;DHT22;23119;51.842;-2.230;2022-12-26T10:53:50;14.40;99.70
37222;DHT22;23119;51.842;-2.230;2022-12-26T10:56:17;14.10;99.90
37222;DHT22;23119;51.842;-2.230;2022-12-26T10:58:44;13.90;99.90
37222;DHT22;23119;51.842;-2.230;2022-12-26T11:03:57;13.10;99.90
37222;DHT22;23119;51.842;-2.230;2022-12-26T11:06:36;12.60;99.90
37222;DHT22;23119;51.842;-2.230;2022-12-26T11:09:18;12.00;99.90
37222;DHT22;23119;51.842;-2.230;2022-12-26T11:11:48;11.50;99.90
37222;DHT22;23119;51.842;-2.230;2022-12-26T11:17:05;10.60;99.90
37222;DHT22;23119;51.842;-2.230;2022-12-26T11:19:38;10.30;99.90
37222;DHT22;23119;51.842;-2.230;2022-12-26T11:22:22;9.90;99.90
37222;DHT22;23119;51.842;-2.230;2022-12-26T11:25:23;9.70;99.90
37222;DHT22;23119;51.842;-2.230;2022-12-26T11:27:54;9.40;99.90
37222;DHT22;23119;51.842;-2.230;2022-12-26T11:30:36;9.20;99.90
37222;DHT22;23119;51.842;-2.230;2022-12-26T11:35:47;8.80;99.90
37222;DHT22;23119;51.842;-2.230;2022-12-26T11:38:18;8.70;99.90
37222;DHT22;23119;51.842;-2.230;2022-12-26T11:41:09;8.60;99.90
37222;DHT22;23119;51.842;-2.230;2022-12-26T11:46:44;8.40;99.90
37222;DHT22;23119;51.842;-2.230;2022-12-26T11:49:35;8.30;99.90
37222;DHT22;23119;51.842;-2.230;2022-12-26T11:55:33;8.20;99.90
37222;DHT22;23119;51.842;-2.230;2022-12-26T12:03:16;8.00;99.90
37222;DHT22;23119;51.842;-2.230;2022-12-26T12:06:13;8.00;99.90
37222;DHT22;23119;51.842;-2.230;2022-12-26T12:14:36;7.80;99.90
37222;DHT22;23119;51.842;-2.230;2022-12-26T12:17:28;7.80;99.90
37222;DHT22;23119;51.842;-2.230;2022-12-26T12:20:19;7.90;99.90
37222;DHT22;23119;51.842;-2.230;2022-12-26T12:39:19;7.90;99.90
37222;DHT22;23119;51.842;-2.230;2022-12-26T12:44:30;7.90;99.90
37222;DHT22;23119;51.842;-2.230;2022-12-26T13:00:47;7.80;99.90
37222;DHT22;23119;51.842;-2.230;2022-12-26T13:16:52;7.60;99.90
37222;DHT22;23119;51.842;-2.230;2022-12-26T13:22:26;7.70;99.90
37222;DHT22;23119;51.842;-2.230;2022-12-26T13:25:20;7.70;99.90
37222;DHT22;23119;51.842;-2.230;2022-12-26T13:27:51;7.70;99.90
37222;DHT22;23119;51.842;-2.230;2022-12-26T13:30:19;7.70;99.90
37222;DHT22;23119;51.842;-2.230;2022-12-26T13:32:45;7.70;99.90
37222;DHT22;23119;51.842;-2.230;2022-12-26T13:38:10;7.80;99.90
37222;DHT22;23119;51.842;-2.230;2022-12-26T13:40:46;7.70;99.90
37222;DHT22;23119;51.842;-2.230;2022-12-26T13:43:17;7.70;99.90
37222;DHT22;23119;51.842;-2.230;2022-12-26T13:46:08;7.70;99.90
37222;DHT22;23119;51.842;-2.230;2022-12-26T13:48:55;7.70;99.90
37222;DHT22;23119;51.842;-2.230;2022-12-26T13:51:43;7.80;99.90
37222;DHT22;23119;51.842;-2.230;2022-12-26T13:54:14;7.80;99.90
37222;DHT22;23119;51.842;-2.230;2022-12-26T13:59:24;7.80;99.90
37222;DHT22;23119;51.842;-2.230;2022-12-26T14:02:01;7.80;99.90
37222;DHT22;23119;51.842;-2.230;2022-12-26T14:07:32;7.70;99.90
37222;DHT22;23119;51.842;-2.230;2022-12-26T14:12:47;7.70;99.90
37222;DHT22;23119;51.842;-2.230;2022-12-26T14:18:35;7.60;99.90
37222;DHT22;23119;51.842;-2.230;2022-12-26T14:23:51;7.60;99.90
37222;DHT22;23119;51.842;-2.230;2022-12-26T14:26:44;7.50;99.90
37222;DHT22;23119;51.842;-2.230;2022-12-26T14:40:29;7.50;99.90
37222;DHT22;23119;51.842;-2.230;2022-12-26T14:43:54;7.50;99.90
37222;DHT22;23119;51.842;-2.230;2022-12-26T14:45:58;7.40;99.90
37222;DHT22;23119;51.842;-2.230;2022-12-26T14:53:35;7.40;99.90
37222;DHT22;23119;51.842;-2.230;2022-12-26T14:56:30;7.30;99.90
37222;DHT22;23119;51.842;-2.230;2022-12-26T14:59:31;7.30;99.90
37222;DHT22;23119;51.842;-2.230;2022-12-26T15:02:32;7.20;99.90
37222;DHT22;23119;51.842;-2.230;2022-12-26T15:05:02;7.20;99.90
37222;DHT22;23119;51.842;-2.230;2022-12-26T15:11:22;7.00;99.90
37222;DHT22;23119;51.842;-2.230;2022-12-26T15:31:03;6.80;99.90
37222;DHT22;23119;51.842;-2.230;2022-12-26T15:45:46;6.50;99.90
37222;DHT22;23119;51.842;-2.230;2022-12-26T15:51:05;6.40;99.90
37222;DHT22;23119;51.842;-2.230;2022-12-26T15:53:50;6.40;99.90
37222;DHT22;23119;51.842;-2.230;2022-12-26T16:01:43;6.30;99.90
37222;DHT22;23119;51.842;-2.230;2022-12-26T16:07:27;6.20;99.90
37222;DHT22;23119;51.842;-2.230;2022-12-26T16:09:59;6.10;99.90
37222;DHT22;23119;51.842;-2.230;2022-12-26T16:12:32;6.10;99.90
37222;DHT22;23119;51.842;-2.230;2022-12-26T16:15:14;6.00;99.90
37222;DHT22;23119;51.842;-2.230;2022-12-26T16:18:15;6.00;99.90
37222;DHT22;23119;51.842;-2.230;2022-12-26T16:20:49;5.90;99.90
37222;DHT22;23119;51.842;-2.230;2022-12-26T16:23:42;5.90;99.90
37222;DHT22;23119;51.842;-2.230;2022-12-26T16:26:29;5.90;99.90
37222;DHT22;23119;51.842;-2.230;2022-12-26T16:28:59;5.80;99.90
37222;DHT22;23119;51.842;-2.230;2022-12-26T16:31:29;5.80;99.90
37222;DHT22;23119;51.842;-2.230;2022-12-26T16:33:58;5.70;99.90
37222;DHT22;23119;51.842;-2.230;2022-12-26T16:36:27;5.70;99.90
37222;DHT22;23119;51.842;-2.230;2022-12-26T16:38:56;5.70;99.90
37222;DHT22;23119;51.842;-2.230;2022-12-26T16:41:25;5.70;99.90
37222;DHT22;23119;51.842;-2.230;2022-12-26T16:43:57;5.60;99.90
37222;DHT22;23119;51.842;-2.230;2022-12-26T16:46:30;5.60;99.90
37222;DHT22;23119;51.842;-2.230;2022-12-26T16:48:59;5.50;99.90
37222;DHT22;23119;51.842;-2.230;2022-12-26T16:57:09;5.50;99.90
37222;DHT22;23119;51.842;-2.230;2022-12-26T16:59:49;5.50;99.90
37222;DHT22;23119;51.842;-2.230;2022-12-26T17:02:26;5.50;99.90
37222;DHT22;23119;51.842;-2.230;2022-12-26T17:04:58;5.50;99.90
37222;DHT22;23119;51.842;-2.230;2022-12-26T17:07:27;5.40;99.90
37222;DHT22;23119;51.842;-2.230;2022-12-26T17:09:57;5.40;99.90
37222;DHT22;23119;51.842;-2.230;2022-12-26T17:12:52;5.40;99.90
37222;DHT22;23119;51.842;-2.230;2022-12-26T17:15:21;5.40;99.90
37222;DHT22;23119;51.842;-2.230;2022-12-26T17:17:47;5.40;99.90
37222;DHT22;23119;51.842;-2.230;2022-12-26T17:22:56;5.40;99.90
37222;DHT22;23119;51.842;-2.230;2022-12-26T17:25:29;5.50;99.90
37222;DHT22;23119;51.842;-2.230;2022-12-26T17:30:38;5.50;99.90
37222;DHT22;23119;51.842;-2.230;2022-12-26T17:35:37;5.50;99.90
37222;DHT22;23119;51.842;-2.230;2022-12-26T17:38:09;5.40;99.90
37222;DHT22;23119;51.842;-2.230;2022-12-26T17:40:44;5.40;99.90
37222;DHT22;23119;51.842;-2.230;2022-12-26T17:45:45;5.40;99.90
37222;DHT22;23119;51.842;-2.230;2022-12-26T17:48:13;5.40;99.90
37222;DHT22;23119;51.842;-2.230;2022-12-26T17:50:46;5.30;99.90
37222;DHT22;23119;51.842;-2.230;2022-12-26T17:53:37;5.30;99.90
37222;DHT22;23119;51.842;-2.230;2022-12-26T17:56:16;5.30;99.90
37222;DHT22;23119;51.842;-2.230;2022-12-26T17:58:47;5.30;99.90
37222;DHT22;23119;51.842;-2.230;2022-12-26T18:01:15;5.30;99.90
37222;DHT22;23119;51.842;-2.230;2022-12-26T18:03:43;5.30;99.90
37222;DHT22;23119;51.842;-2.230;2022-12-26T18:06:14;5.20;99.90
37222;DHT22;23119;51.842;-2.230;2022-12-26T18:08:47;5.20;99.90
37222;DHT22;23119;51.842;-2.230;2022-12-26T18:11:16;5.20;99.90
37222;DHT22;23119;51.842;-2.230;2022-12-26T18:13:42;5.20;99.90
37222;DHT22;23119;51.842;-2.230;2022-12-26T18:16:14;5.20;99.90
37222;DHT22;23119;51.842;-2.230;2022-12-26T18:18:45;5.20;99.90
37222;DHT22;23119;51.842;-2.230;2022-12-26T18:21:15;5.30;99.90
37222;DHT22;23119;51.842;-2.230;2022-12-26T18:23:43;5.20;99.90
37222;DHT22;23119;51.842;-2.230;2022-12-26T18:26:26;6.00;99.90
37222;DHT22;23119;51.842;-2.230;2022-12-26T18:28:53;5.20;99.90
37222;DHT22;23119;51.842;-2.230;2022-12-26T18:31:19;5.30;99.90
37222;DHT22;23119;51.842;-2.230;2022-12-26T18:33:48;5.30;99.90
37222;DHT22;23119;51.842;-2.230;2022-12-26T18:36:20;5.30;99.90
37222;DHT22;23119;51.842;-2.230;2022-12-26T18:38:52;5.40;99.90
37222;DHT22;23119;51.842;-2.230;2022-12-26T18:41:24;5.40;99.90
37222;DHT22;23119;51.842;-2.230;2022-12-26T18:43:52;5.40;99.90
37222;DHT22;23119;51.842;-2.230;2022-12-26T18:46:23;5.40;99.90
37222;DHT22;23119;51.842;-2.230;2022-12-26T18:48:54;5.40;99.90
37222;DHT22;23119;51.842;-2.230;2022-12-26T18:51:26;5.40;99.90
37222;DHT22;23119;51.842;-2.230;2022-12-26T18:54:02;5.40;99.90
37222;DHT22;23119;51.842;-2.230;2022-12-26T18:56:33;5.40;99.90
37222;DHT22;23119;51.842;-2.230;2022-12-26T18:59:01;5.30;99.90
37222;DHT22;23119;51.842;-2.230;2022-12-26T19:01:30;5.30;99.90
37222;DHT22;23119;51.842;-2.230;2022-12-26T19:04:02;5.30;99.90
37222;DHT22;23119;51.842;-2.230;2022-12-26T19:06:31;5.30;99.90
37222;DHT22;23119;51.842;-2.230;2022-12-26T19:08:59;5.20;99.90
37222;DHT22;23119;51.842;-2.230;2022-12-26T19:11:37;5.20;99.90
37222;DHT22;23119;51.842;-2.230;2022-12-26T19:14:14;5.20;99.90
37222;DHT22;23119;51.842;-2.230;2022-12-26T19:16:41;5.20;99.90
37222;DHT22;23119;51.842;-2.230;2022-12-26T19:19:12;5.10;99.90
37222;DHT22;23119;51.842;-2.230;2022-12-26T19:21:42;5.20;99.90
37222;DHT22;23119;51.842;-2.230;2022-12-26T19:24:16;5.10;99.90
37222;DHT22;23119;51.842;-2.230;2022-12-26T19:26:44;5.20;99.90
37222;DHT22;23119;51.842;-2.230;2022-12-26T19:29:10;5.20;99.90
37222;DHT22;23119;51.842;-2.230;2022-12-26T19:31:36;5.20;99.90
37222;DHT22;23119;51.842;-2.230;2022-12-26T19:34:04;5.20;99.90
37222;DHT22;23119;51.842;-2.230;2022-12-26T19:36:30;5.20;99.90
37222;DHT22;23119;51.842;-2.230;2022-12-26T19:38:56;5.20;99.90
37222;DHT22;23119;51.842;-2.230;2022-12-26T19:41:24;5.20;99.90
37222;DHT22;23119;51.842;-2.230;2022-12-26T19:43:56;5.20;99.90
37222;DHT22;23119;51.842;-2.230;2022-12-26T19:46:26;5.20;99.90
37222;DHT22;23119;51.842;-2.230;2022-12-26T19:48:52;5.30;99.90
37222;DHT22;23119;51.842;-2.230;2022-12-26T19:51:19;5.20;99.90
37222;DHT22;23119;51.842;-2.230;2022-12-26T19:53:46;5.20;99.90
37222;DHT22;23119;51.842;-2.230;2022-12-26T19:56:15;5.20;99.90
37222;DHT22;23119;51.842;-2.230;2022-12-26T19:58:44;5.20;99.90
37222;DHT22;23119;51.842;-2.230;2022-12-26T20:01:13;5.20;99.90
37222;DHT22;23119;51.842;-2.230;2022-12-26T20:03:42;5.20;99.90
37222;DHT22;23119;51.842;-2.230;2022-12-26T20:06:18;5.20;99.90
37222;DHT22;23119;51.842;-2.230;2022-12-26T20:08:45;5.20;99.90
37222;DHT22;23119;51.842;-2.230;2022-12-26T20:11:18;5.20;99.90